sensor_id;sensor_type;location;lat;lon;timestamp;P1;durP1;ratioP1;P2;durP2;ratioP2
22768;SDS011;13001;51.968;5.918;2024-01-15T00:01:43;4.87;;;1.20;;
22768;SDS011;13001;51.968;5.918;2024-01-15T00:04:11;8.07;;;1.43;;
22768;SDS011;13001;51.968;5.918;2024-01-15T00:06:39;6.33;;;0.97;;
22768;SDS011;13001;51.968;5.918;2024-01-15T00:09:06;5.07;;;0.93;;
22768;SDS011;13001;51.968;5.918;2024-01-15T00:11:35;3.50;;;0.87;;
22768;SDS011;13001;51.968;5.918;2024-01-15T00:14:03;6.33;;;0.93;;
22768;SDS011;13001;51.968;5.918;2024-01-15T00:16:30;14.50;;;1.63;;
22768;SDS011;13001;51.968;5.918;2024-01-15T00:18:58;8.57;;;1.10;;
22768;SDS011;13001;51.968;5.918;2024-01-15T00:21:25;3.93;;;0.87;;
22768;SDS011;13001;51.968;5.918;2024-01-15T00:23:53;7.90;;;1.30;;
22768;SDS011;13001;51.968;5.918;2024-01-15T00:26:21;8.83;;;1.33;;
22768;SDS011;13001;51.968;5.918;2024-01-15T00:28:48;4.63;;;0.83;;
22768;SDS011;13001;51.968;5.918;2024-01-15T00:31:16;5.33;;;0.73;;
22768;SDS011;13001;51.968;5.918;2024-01-15T00:33:45;4.63;;;0.80;;
22768;SDS011;13001;51.968;5.918;2024-01-15T00:36:13;8.67;;;1.10;;
22768;SDS011;13001;51.968;5.918;2024-01-15T00:38:43;8.17;;;1.20;;
22768;SDS011;13001;51.968;5.918;2024-01-15T00:41:13;9.57;;;1.17;;
22768;SDS011;13001;51.968;5.918;2024-01-15T00:43:41;6.80;;;1.20;;
22768;SDS011;13001;51.968;5.918;2024-01-15T00:46:09;10.13;;;1.17;;
22768;SDS011;13001;51.968;5.918;2024-01-15T00:48:36;14.27;;;1.43;;
22768;SDS011;13001;51.968;5.918;2024-01-15T00:51:04;6.73;;;1.07;;
22768;SDS011;13001;51.968;5.918;2024-01-15T00:53:31;9.83;;;1.07;;
22768;SDS011;13001;51.968;5.918;2024-01-15T00:55:59;6.37;;;1.13;;
22768;SDS011;13001;51.968;5.918;2024-01-15T00:58:28;3.00;;;0.70;;
22768;SDS011;13001;51.968;5.918;2024-01-15T01:00:56;10.50;;;1.23;;
22768;SDS011;13001;51.968;5.918;2024-01-15T01:03:23;7.23;;;1.10;;
22768;SDS011;13001;51.968;5.918;2024-01-15T01:05:51;10.37;;;1.40;;
22768;SDS011;13001;51.968;5.918;2024-01-15T01:08:18;16.23;;;1.40;;
22768;SDS011;13001;51.968;5.918;2024-01-15T01:10:46;11.80;;;1.43;;
22768;SDS011;13001;51.968;5.918;2024-01-15T01:13:13;6.03;;;0.83;;
22768;SDS011;13001;51.968;5.918;2024-01-15T01:15:40;17.13;;;1.67;;
22768;SDS011;13001;51.968;5.918;2024-01-15T01:18:08;7.30;;;1.23;;
22768;SDS011;13001;51.968;5.918;2024-01-15T01:20:35;11.67;;;1.27;;
22768;SDS011;13001;51.968;5.918;2024-01-15T01:23:03;4.67;;;1.03;;
22768;SDS011;13001;51.968;5.918;2024-01-15T01:25:30;10.43;;;1.20;;
22768;SDS011;13001;51.968;5.918;2024-01-15T01:27:59;6.97;;;1.23;;
22768;SDS011;13001;51.968;5.918;2024-01-15T01:30:27;8.23;;;1.23;;
22768;SDS011;13001;51.968;5.918;2024-01-15T01:32:54;11.33;;;1.13;;
22768;SDS011;13001;51.968;5.918;2024-01-15T01:35:22;12.33;;;1.30;;
22768;SDS011;13001;51.968;5.918;2024-01-15T01:37:49;7.43;;;1.17;;
22768;SDS011;13001;51.968;5.918;2024-01-15T01:40:17;3.27;;;0.73;;
22768;SDS011;13001;51.968;5.918;2024-01-15T01:42:44;12.73;;;1.20;;
22768;SDS011;13001;51.968;5.918;2024-01-15T01:45:12;13.37;;;1.20;;
22768;SDS011;13001;51.968;5.918;2024-01-15T01:47:39;7.93;;;1.07;;
22768;SDS011;13001;51.968;5.918;2024-01-15T01:50:08;15.67;;;1.30;;
22768;SDS011;13001;51.968;5.918;2024-01-15T01:52:35;10.20;;;1.17;;
22768;SDS011;13001;51.968;5.918;2024-01-15T01:55:03;8.97;;;1.13;;
22768;SDS011;13001;51.968;5.918;2024-01-15T01:57:33;8.13;;;1.23;;
22768;SDS011;13001;51.968;5.918;2024-01-15T02:00:02;11.73;;;1.57;;
22768;SDS011;13001;51.968;5.918;2024-01-15T02:02:31;17.50;;;1.60;;
22768;SDS011;13001;51.968;5.918;2024-01-15T02:04:59;10.13;;;1.20;;
22768;SDS011;13001;51.968;5.918;2024-01-15T02:07:26;8.97;;;1.00;;
22768;SDS011;13001;51.968;5.918;2024-01-15T02:09:54;4.40;;;1.37;;
22768;SDS011;13001;51.968;5.918;2024-01-15T02:12:21;11.07;;;1.27;;
22768;SDS011;13001;51.968;5.918;2024-01-15T02:14:49;16.13;;;1.43;;
22768;SDS011;13001;51.968;5.918;2024-01-15T02:17:16;17.23;;;1.27;;
22768;SDS011;13001;51.968;5.918;2024-01-15T02:19:44;11.33;;;1.10;;
22768;SDS011;13001;51.968;5.918;2024-01-15T02:22:11;12.83;;;1.73;;
22768;SDS011;13001;51.968;5.918;2024-01-15T02:24:39;14.57;;;1.80;;
22768;SDS011;13001;51.968;5.918;2024-01-15T02:27:06;21.37;;;1.50;;
22768;SDS011;13001;51.968;5.918;2024-01-15T02:29:34;16.23;;;1.33;;
22768;SDS011;13001;51.968;5.918;2024-01-15T02:32:05;7.30;;;1.40;;
22768;SDS011;13001;51.968;5.918;2024-01-15T02:34:35;9.30;;;1.30;;
22768;SDS011;13001;51.968;5.918;2024-01-15T02:37:03;9.53;;;1.27;;
22768;SDS011;13001;51.968;5.918;2024-01-15T02:39:31;4.73;;;1.40;;
22768;SDS011;13001;51.968;5.918;2024-01-15T02:41:58;17.73;;;1.83;;
22768;SDS011;13001;51.968;5.918;2024-01-15T02:44:25;15.97;;;1.90;;
22768;SDS011;13001;51.968;5.918;2024-01-15T02:46:53;11.80;;;1.67;;
22768;SDS011;13001;51.968;5.918;2024-01-15T02:49:21;12.77;;;1.40;;
22768;SDS011;13001;51.968;5.918;2024-01-15T02:51:48;12.07;;;1.77;;
22768;SDS011;13001;51.968;5.918;2024-01-15T02:54:16;13.40;;;1.40;;
22768;SDS011;13001;51.968;5.918;2024-01-15T02:56:43;14.60;;;1.40;;
22768;SDS011;13001;51.968;5.918;2024-01-15T02:59:11;10.23;;;1.43;;
22768;SDS011;13001;51.968;5.918;2024-01-15T03:01:38;11.83;;;1.70;;
22768;SDS011;13001;51.968;5.918;2024-01-15T03:04:05;15.40;;;1.30;;
22768;SDS011;13001;51.968;5.918;2024-01-15T03:06:33;9.10;;;1.43;;
22768;SDS011;13001;51.968;5.918;2024-01-15T03:09:00;4.83;;;1.20;;
22768;SDS011;13001;51.968;5.918;2024-01-15T03:11:29;10.70;;;1.20;;
22768;SDS011;13001;51.968;5.918;2024-01-15T03:13:58;10.13;;;1.23;;
22768;SDS011;13001;51.968;5.918;2024-01-15T03:16:26;7.60;;;1.67;;
22768;SDS011;13001;51.968;5.918;2024-01-15T03:18:53;9.00;;;1.20;;
22768;SDS011;13001;51.968;5.918;2024-01-15T03:21:21;8.70;;;1.30;;
22768;SDS011;13001;51.968;5.918;2024-01-15T03:23:48;12.73;;;1.30;;
22768;SDS011;13001;51.968;5.918;2024-01-15T03:26:16;5.17;;;0.90;;
22768;SDS011;13001;51.968;5.918;2024-01-15T03:28:43;14.70;;;1.77;;
22768;SDS011;13001;51.968;5.918;2024-01-15T03:31:12;13.83;;;1.70;;
22768;SDS011;13001;51.968;5.918;2024-01-15T03:33:40;12.10;;;1.53;;
22768;SDS011;13001;51.968;5.918;2024-01-15T03:36:07;12.00;;;2.00;;
22768;SDS011;13001;51.968;5.918;2024-01-15T03:38:39;10.00;;;1.30;;
22768;SDS011;13001;51.968;5.918;2024-01-15T03:41:08;16.40;;;1.67;;
22768;SDS011;13001;51.968;5.918;2024-01-15T03:43:36;9.83;;;1.40;;
22768;SDS011;13001;51.968;5.918;2024-01-15T03:46:04;10.97;;;1.60;;
22768;SDS011;13001;51.968;5.918;2024-01-15T03:48:31;6.67;;;1.23;;
22768;SDS011;13001;51.968;5.918;2024-01-15T03:50:59;20.70;;;1.80;;
22768;SDS011;13001;51.968;5.918;2024-01-15T03:53:26;13.87;;;1.40;;
22768;SDS011;13001;51.968;5.918;2024-01-15T03:55:54;17.80;;;1.50;;
22768;SDS011;13001;51.968;5.918;2024-01-15T03:58:21;10.50;;;1.10;;
22768;SDS011;13001;51.968;5.918;2024-01-15T04:00:49;4.03;;;1.17;;
22768;SDS011;13001;51.968;5.918;2024-01-15T04:03:16;11.87;;;1.07;;
22768;SDS011;13001;51.968;5.918;2024-01-15T04:05:44;11.40;;;1.20;;
22768;SDS011;13001;51.968;5.918;2024-01-15T04:08:11;12.27;;;1.70;;
22768;SDS011;13001;51.968;5.918;2024-01-15T04:10:39;9.33;;;1.47;;
22768;SDS011;13001;51.968;5.918;2024-01-15T04:13:06;18.70;;;1.30;;
22768;SDS011;13001;51.968;5.918;2024-01-15T04:15:34;9.30;;;1.27;;
22768;SDS011;13001;51.968;5.918;2024-01-15T04:18:02;12.90;;;1.50;;
22768;SDS011;13001;51.968;5.918;2024-01-15T04:20:30;12.97;;;1.30;;
22768;SDS011;13001;51.968;5.918;2024-01-15T04:22:57;5.73;;;1.07;;
22768;SDS011;13001;51.968;5.918;2024-01-15T04:25:25;10.67;;;1.10;;
22768;SDS011;13001;51.968;5.918;2024-01-15T04:27:52;19.30;;;1.53;;
22768;SDS011;13001;51.968;5.918;2024-01-15T04:30:19;13.03;;;1.43;;
22768;SDS011;13001;51.968;5.918;2024-01-15T04:32:48;9.37;;;1.40;;
22768;SDS011;13001;51.968;5.918;2024-01-15T04:35:16;6.60;;;1.10;;
22768;SDS011;13001;51.968;5.918;2024-01-15T04:37:43;8.43;;;1.30;;
22768;SDS011;13001;51.968;5.918;2024-01-15T04:40:11;10.83;;;1.37;;
22768;SDS011;13001;51.968;5.918;2024-01-15T04:42:39;8.27;;;1.03;;
22768;SDS011;13001;51.968;5.918;2024-01-15T04:45:06;18.77;;;1.63;;
22768;SDS011;13001;51.968;5.918;2024-01-15T04:47:34;9.07;;;1.63;;
22768;SDS011;13001;51.968;5.918;2024-01-15T04:50:03;10.33;;;1.07;;
22768;SDS011;13001;51.968;5.918;2024-01-15T04:52:31;9.27;;;1.13;;
22768;SDS011;13001;51.968;5.918;2024-01-15T04:54:59;9.83;;;1.27;;
22768;SDS011;13001;51.968;5.918;2024-01-15T04:57:26;6.67;;;1.33;;
22768;SDS011;13001;51.968;5.918;2024-01-15T04:59:54;11.20;;;1.47;;
22768;SDS011;13001;51.968;5.918;2024-01-15T05:02:21;13.07;;;1.30;;
22768;SDS011;13001;51.968;5.918;2024-01-15T05:04:49;12.70;;;1.37;;
22768;SDS011;13001;51.968;5.918;2024-01-15T05:07:16;13.23;;;1.13;;
22768;SDS011;13001;51.968;5.918;2024-01-15T05:09:44;12.50;;;1.37;;
22768;SDS011;13001;51.968;5.918;2024-01-15T05:12:13;13.97;;;1.57;;
22768;SDS011;13001;51.968;5.918;2024-01-15T05:14:40;9.97;;;1.40;;
22768;SDS011;13001;51.968;5.918;2024-01-15T05:17:08;10.00;;;1.37;;
22768;SDS011;13001;51.968;5.918;2024-01-15T05:19:35;7.90;;;1.40;;
22768;SDS011;13001;51.968;5.918;2024-01-15T05:22:03;6.10;;;1.10;;
22768;SDS011;13001;51.968;5.918;2024-01-15T05:24:30;8.27;;;1.00;;
22768;SDS011;13001;51.968;5.918;2024-01-15T05:26:58;12.53;;;1.43;;
22768;SDS011;13001;51.968;5.918;2024-01-15T05:29:25;16.03;;;1.90;;
22768;SDS011;13001;51.968;5.918;2024-01-15T05:31:53;9.00;;;1.43;;
22768;SDS011;13001;51.968;5.918;2024-01-15T05:34:21;15.47;;;1.40;;
22768;SDS011;13001;51.968;5.918;2024-01-15T05:36:48;17.90;;;1.60;;
22768;SDS011;13001;51.968;5.918;2024-01-15T05:39:16;8.47;;;1.40;;
22768;SDS011;13001;51.968;5.918;2024-01-15T05:41:43;7.60;;;1.53;;
22768;SDS011;13001;51.968;5.918;2024-01-15T05:44:11;12.80;;;1.70;;
22768;SDS011;13001;51.968;5.918;2024-01-15T05:46:38;9.33;;;1.40;;
22768;SDS011;13001;51.968;5.918;2024-01-15T05:49:06;5.67;;;1.33;;
22768;SDS011;13001;51.968;5.918;2024-01-15T05:51:33;7.17;;;1.27;;
22768;SDS011;13001;51.968;5.918;2024-01-15T05:54:01;5.67;;;1.20;;
22768;SDS011;13001;51.968;5.918;2024-01-15T05:56:29;6.73;;;1.27;;
22768;SDS011;13001;51.968;5.918;2024-01-15T05:58:57;12.23;;;1.30;;
22768;SDS011;13001;51.968;5.918;2024-01-15T06:01:24;8.90;;;1.00;;
22768;SDS011;13001;51.968;5.918;2024-01-15T06:03:52;4.80;;;1.43;;
22768;SDS011;13001;51.968;5.918;2024-01-15T06:06:19;3.40;;;0.70;;
22768;SDS011;13001;51.968;5.918;2024-01-15T06:08:47;6.43;;;1.00;;
22768;SDS011;13001;51.968;5.918;2024-01-15T06:11:14;6.80;;;1.30;;
22768;SDS011;13001;51.968;5.918;2024-01-15T06:13:42;4.33;;;1.20;;
22768;SDS011;13001;51.968;5.918;2024-01-15T06:16:15;7.50;;;1.17;;
22768;SDS011;13001;51.968;5.918;2024-01-15T06:18:44;6.27;;;1.00;;
22768;SDS011;13001;51.968;5.918;2024-01-15T06:21:12;6.70;;;1.00;;
22768;SDS011;13001;51.968;5.918;2024-01-15T06:23:40;4.47;;;0.77;;
22768;SDS011;13001;51.968;5.918;2024-01-15T06:26:07;6.73;;;1.00;;
22768;SDS011;13001;51.968;5.918;2024-01-15T06:28:35;4.03;;;0.70;;
22768;SDS011;13001;51.968;5.918;2024-01-15T06:31:03;5.10;;;1.00;;
22768;SDS011;13001;51.968;5.918;2024-01-15T06:33:31;2.50;;;0.80;;
22768;SDS011;13001;51.968;5.918;2024-01-15T06:35:59;3.47;;;0.87;;
22768;SDS011;13001;51.968;5.918;2024-01-15T06:38:26;3.93;;;0.80;;
22768;SDS011;13001;51.968;5.918;2024-01-15T06:40:54;9.90;;;1.00;;
22768;SDS011;13001;51.968;5.918;2024-01-15T06:43:21;2.23;;;0.80;;
22768;SDS011;13001;51.968;5.918;2024-01-15T06:45:49;6.33;;;1.63;;
22768;SDS011;13001;51.968;5.918;2024-01-15T06:48:16;6.37;;;1.27;;
22768;SDS011;13001;51.968;5.918;2024-01-15T06:50:44;3.33;;;1.20;;
22768;SDS011;13001;51.968;5.918;2024-01-15T06:53:11;9.23;;;1.30;;
22768;SDS011;13001;51.968;5.918;2024-01-15T06:55:39;2.87;;;1.40;;
22768;SDS011;13001;51.968;5.918;2024-01-15T06:58:06;4.67;;;1.70;;
22768;SDS011;13001;51.968;5.918;2024-01-15T07:00:34;3.70;;;1.80;;
22768;SDS011;13001;51.968;5.918;2024-01-15T07:03:02;3.60;;;2.13;;
22768;SDS011;13001;51.968;5.918;2024-01-15T07:05:29;4.70;;;2.10;;
22768;SDS011;13001;51.968;5.918;2024-01-15T07:07:58;5.37;;;2.87;;
22768;SDS011;13001;51.968;5.918;2024-01-15T07:10:25;7.63;;;3.17;;
22768;SDS011;13001;51.968;5.918;2024-01-15T07:12:53;4.80;;;3.43;;
22768;SDS011;13001;51.968;5.918;2024-01-15T07:15:20;5.47;;;3.73;;
22768;SDS011;13001;51.968;5.918;2024-01-15T07:17:48;7.47;;;4.57;;
22768;SDS011;13001;51.968;5.918;2024-01-15T07:20:16;5.67;;;3.90;;
22768;SDS011;13001;51.968;5.918;2024-01-15T07:22:45;9.90;;;4.50;;
22768;SDS011;13001;51.968;5.918;2024-01-15T07:25:12;5.90;;;4.17;;
22768;SDS011;13001;51.968;5.918;2024-01-15T07:27:40;6.30;;;4.50;;
22768;SDS011;13001;51.968;5.918;2024-01-15T07:30:11;7.00;;;4.70;;
22768;SDS011;13001;51.968;5.918;2024-01-15T07:32:39;5.77;;;4.60;;
22768;SDS011;13001;51.968;5.918;2024-01-15T07:35:07;6.70;;;4.67;;
22768;SDS011;13001;51.968;5.918;2024-01-15T07:37:36;5.23;;;4.33;;
22768;SDS011;13001;51.968;5.918;2024-01-15T07:40:03;5.07;;;4.00;;
22768;SDS011;13001;51.968;5.918;2024-01-15T07:42:33;5.50;;;4.50;;
22768;SDS011;13001;51.968;5.918;2024-01-15T07:45:01;6.43;;;4.90;;
22768;SDS011;13001;51.968;5.918;2024-01-15T07:47:29;6.47;;;4.30;;
22768;SDS011;13001;51.968;5.918;2024-01-15T07:49:56;4.97;;;4.20;;
22768;SDS011;13001;51.968;5.918;2024-01-15T07:52:24;5.30;;;4.13;;
22768;SDS011;13001;51.968;5.918;2024-01-15T07:54:52;5.60;;;4.37;;
22768;SDS011;13001;51.968;5.918;2024-01-15T07:57:19;7.63;;;4.60;;
22768;SDS011;13001;51.968;5.918;2024-01-15T07:59:47;7.63;;;5.50;;
22768;SDS011;13001;51.968;5.918;2024-01-15T08:02:15;7.03;;;4.67;;
22768;SDS011;13001;51.968;5.918;2024-01-15T08:04:42;6.23;;;4.33;;
22768;SDS011;13001;51.968;5.918;2024-01-15T08:07:10;6.20;;;4.40;;
22768;SDS011;13001;51.968;5.918;2024-01-15T08:09:38;6.50;;;3.90;;
22768;SDS011;13001;51.968;5.918;2024-01-15T08:12:07;4.60;;;3.17;;
22768;SDS011;13001;51.968;5.918;2024-01-15T08:14:35;3.43;;;2.67;;
22768;SDS011;13001;51.968;5.918;2024-01-15T08:17:04;3.43;;;2.47;;
22768;SDS011;13001;51.968;5.918;2024-01-15T08:19:32;2.33;;;1.93;;
22768;SDS011;13001;51.968;5.918;2024-01-15T08:21:59;3.27;;;2.03;;
22768;SDS011;13001;51.968;5.918;2024-01-15T08:24:27;2.93;;;2.10;;
22768;SDS011;13001;51.968;5.918;2024-01-15T08:27:00;2.70;;;2.03;;
22768;SDS011;13001;51.968;5.918;2024-01-15T08:29:27;2.50;;;1.80;;
22768;SDS011;13001;51.968;5.918;2024-01-15T08:31:57;3.37;;;1.90;;
22768;SDS011;13001;51.968;5.918;2024-01-15T08:34:24;2.53;;;1.93;;
22768;SDS011;13001;51.968;5.918;2024-01-15T08:36:52;4.13;;;1.73;;
22768;SDS011;13001;51.968;5.918;2024-01-15T08:39:19;3.10;;;2.00;;
22768;SDS011;13001;51.968;5.918;2024-01-15T08:41:46;2.77;;;1.60;;
22768;SDS011;13001;51.968;5.918;2024-01-15T08:44:16;2.23;;;1.70;;
22768;SDS011;13001;51.968;5.918;2024-01-15T08:46:45;2.40;;;1.60;;
22768;SDS011;13001;51.968;5.918;2024-01-15T08:49:13;5.03;;;1.83;;
22768;SDS011;13001;51.968;5.918;2024-01-15T08:51:40;2.70;;;1.60;;
22768;SDS011;13001;51.968;5.918;2024-01-15T08:54:08;4.87;;;1.70;;
22768;SDS011;13001;51.968;5.918;2024-01-15T08:56:35;3.43;;;1.70;;
22768;SDS011;13001;51.968;5.918;2024-01-15T08:59:03;3.43;;;1.63;;
22768;SDS011;13001;51.968;5.918;2024-01-15T09:01:30;2.40;;;1.43;;
22768;SDS011;13001;51.968;5.918;2024-01-15T09:03:58;5.57;;;1.97;;
22768;SDS011;13001;51.968;5.918;2024-01-15T09:06:25;5.20;;;1.70;;
22768;SDS011;13001;51.968;5.918;2024-01-15T09:08:53;2.63;;;1.47;;
22768;SDS011;13001;51.968;5.918;2024-01-15T09:11:20;5.43;;;1.80;;
22768;SDS011;13001;51.968;5.918;2024-01-15T09:13:49;5.97;;;2.40;;
22768;SDS011;13001;51.968;5.918;2024-01-15T09:16:17;3.53;;;1.90;;
22768;SDS011;13001;51.968;5.918;2024-01-15T09:18:45;3.70;;;1.73;;
22768;SDS011;13001;51.968;5.918;2024-01-15T09:21:12;5.17;;;2.00;;
22768;SDS011;13001;51.968;5.918;2024-01-15T09:23:40;3.80;;;1.83;;
22768;SDS011;13001;51.968;5.918;2024-01-15T09:26:08;5.13;;;1.97;;
22768;SDS011;13001;51.968;5.918;2024-01-15T09:28:35;9.03;;;2.20;;
22768;SDS011;13001;51.968;5.918;2024-01-15T09:31:03;3.00;;;1.80;;
22768;SDS011;13001;51.968;5.918;2024-01-15T09:33:31;8.40;;;2.08;;
22768;SDS011;13001;51.968;5.918;2024-01-15T09:36:02;7.67;;;2.17;;
22768;SDS011;13001;51.968;5.918;2024-01-15T09:38:31;5.25;;;2.33;;
22768;SDS011;13001;51.968;5.918;2024-01-15T09:40:58;6.17;;;2.33;;
22768;SDS011;13001;51.968;5.918;2024-01-15T09:43:26;5.25;;;1.92;;
22768;SDS011;13001;51.968;5.918;2024-01-15T09:45:53;4.17;;;1.60;;
22768;SDS011;13001;51.968;5.918;2024-01-15T09:48:22;5.87;;;1.77;;
22768;SDS011;13001;51.968;5.918;2024-01-15T09:50:50;3.13;;;1.20;;
22768;SDS011;13001;51.968;5.918;2024-01-15T09:53:18;4.33;;;0.73;;
22768;SDS011;13001;51.968;5.918;2024-01-15T09:55:46;5.23;;;1.10;;
22768;SDS011;13001;51.968;5.918;2024-01-15T09:58:15;4.10;;;0.83;;
22768;SDS011;13001;51.968;5.918;2024-01-15T10:00:43;2.83;;;0.60;;
22768;SDS011;13001;51.968;5.918;2024-01-15T10:03:13;5.03;;;1.20;;
22768;SDS011;13001;51.968;5.918;2024-01-15T10:05:41;3.93;;;0.80;;
22768;SDS011;13001;51.968;5.918;2024-01-15T10:08:09;3.07;;;0.63;;
22768;SDS011;13001;51.968;5.918;2024-01-15T10:10:38;2.77;;;0.70;;
22768;SDS011;13001;51.968;5.918;2024-01-15T10:13:06;2.43;;;0.70;;
22768;SDS011;13001;51.968;5.918;2024-01-15T10:15:37;7.03;;;0.70;;
22768;SDS011;13001;51.968;5.918;2024-01-15T10:18:05;0.60;;;0.40;;
22768;SDS011;13001;51.968;5.918;2024-01-15T10:20:32;3.67;;;0.80;;
22768;SDS011;13001;51.968;5.918;2024-01-15T10:23:00;2.33;;;0.78;;
22768;SDS011;13001;51.968;5.918;2024-01-15T10:25:27;4.45;;;0.80;;
22768;SDS011;13001;51.968;5.918;2024-01-15T10:28:00;3.20;;;0.88;;
22768;SDS011;13001;51.968;5.918;2024-01-15T10:30:28;4.00;;;0.90;;
22768;SDS011;13001;51.968;5.918;2024-01-15T10:33:00;2.65;;;0.80;;
22768;SDS011;13001;51.968;5.918;2024-01-15T10:35:32;3.25;;;0.82;;
22768;SDS011;13001;51.968;5.918;2024-01-15T10:38:00;3.72;;;0.90;;
22768;SDS011;13001;51.968;5.918;2024-01-15T10:40:31;4.83;;;0.90;;
22768;SDS011;13001;51.968;5.918;2024-01-15T10:42:59;5.58;;;1.30;;
22768;SDS011;13001;51.968;5.918;2024-01-15T10:45:27;4.33;;;1.20;;
22768;SDS011;13001;51.968;5.918;2024-01-15T10:47:54;6.83;;;1.50;;
22768;SDS011;13001;51.968;5.918;2024-01-15T10:50:24;5.08;;;1.70;;
22768;SDS011;13001;51.968;5.918;2024-01-15T10:52:52;6.00;;;1.95;;
22768;SDS011;13001;51.968;5.918;2024-01-15T10:55:20;4.83;;;1.90;;
22768;SDS011;13001;51.968;5.918;2024-01-15T10:57:50;7.20;;;2.25;;
22768;SDS011;13001;51.968;5.918;2024-01-15T11:00:19;3.27;;;2.17;;
22768;SDS011;13001;51.968;5.918;2024-01-15T11:02:49;3.98;;;2.30;;
22768;SDS011;13001;51.968;5.918;2024-01-15T11:05:19;4.25;;;2.30;;
22768;SDS011;13001;51.968;5.918;2024-01-15T11:07:48;6.15;;;2.10;;
22768;SDS011;13001;51.968;5.918;2024-01-15T11:10:50;7.25;;;1.90;;
22768;SDS011;13001;51.968;5.918;2024-01-15T11:13:13;5.87;;;2.37;;
22768;SDS011;13001;51.968;5.918;2024-01-15T11:15:54;5.92;;;2.58;;
22768;SDS011;13001;51.968;5.918;2024-01-15T11:18:35;8.40;;;2.37;;
22768;SDS011;13001;51.968;5.918;2024-01-15T11:21:22;10.20;;;2.90;;
22768;SDS011;13001;51.968;5.918;2024-01-15T11:23:53;7.35;;;2.40;;
22768;SDS011;13001;51.968;5.918;2024-01-15T11:26:36;5.95;;;1.80;;
22768;SDS011;13001;51.968;5.918;2024-01-15T11:29:10;6.70;;;1.97;;
22768;SDS011;13001;51.968;5.918;2024-01-15T11:35:11;6.72;;;1.90;;
22768;SDS011;13001;51.968;5.918;2024-01-15T11:37:12;5.50;;;1.60;;
22768;SDS011;13001;51.968;5.918;2024-01-15T11:39:40;7.80;;;2.20;;
22768;SDS011;13001;51.968;5.918;2024-01-15T11:42:09;6.65;;;2.10;;
22768;SDS011;13001;51.968;5.918;2024-01-15T11:44:38;7.08;;;1.80;;
22768;SDS011;13001;51.968;5.918;2024-01-15T11:47:06;8.20;;;2.00;;
22768;SDS011;13001;51.968;5.918;2024-01-15T11:52:32;9.00;;;1.60;;
22768;SDS011;13001;51.968;5.918;2024-01-15T11:55:10;5.53;;;1.30;;
22768;SDS011;13001;51.968;5.918;2024-01-15T11:57:50;6.95;;;1.42;;
22768;SDS011;13001;51.968;5.918;2024-01-15T12:00:21;8.13;;;1.60;;
22768;SDS011;13001;51.968;5.918;2024-01-15T12:02:50;7.80;;;1.47;;
22768;SDS011;13001;51.968;5.918;2024-01-15T12:05:20;6.83;;;1.45;;
22768;SDS011;13001;51.968;5.918;2024-01-15T12:07:48;9.13;;;1.30;;
22768;SDS011;13001;51.968;5.918;2024-01-15T12:10:16;8.90;;;1.67;;
22768;SDS011;13001;51.968;5.918;2024-01-15T12:15:28;8.00;;;1.50;;
22768;SDS011;13001;51.968;5.918;2024-01-15T12:17:56;6.10;;;1.37;;
22768;SDS011;13001;51.968;5.918;2024-01-15T12:20:25;6.75;;;1.40;;
22768;SDS011;13001;51.968;5.918;2024-01-15T12:22:54;10.03;;;1.52;;
22768;SDS011;13001;51.968;5.918;2024-01-15T12:25:22;5.95;;;1.40;;
22768;SDS011;13001;51.968;5.918;2024-01-15T12:27:52;5.85;;;1.30;;
22768;SDS011;13001;51.968;5.918;2024-01-15T12:30:21;6.70;;;1.30;;
22768;SDS011;13001;51.968;5.918;2024-01-15T12:32:48;6.40;;;1.20;;
22768;SDS011;13001;51.968;5.918;2024-01-15T12:35:16;6.70;;;1.40;;
22768;SDS011;13001;51.968;5.918;2024-01-15T12:37:44;6.20;;;1.20;;
22768;SDS011;13001;51.968;5.918;2024-01-15T12:40:18;8.60;;;1.35;;
22768;SDS011;13001;51.968;5.918;2024-01-15T12:42:45;8.53;;;1.60;;
22768;SDS011;13001;51.968;5.918;2024-01-15T12:45:12;7.67;;;1.50;;
22768;SDS011;13001;51.968;5.918;2024-01-15T12:47:41;7.05;;;1.30;;
22768;SDS011;13001;51.968;5.918;2024-01-15T12:50:09;5.60;;;1.15;;
22768;SDS011;13001;51.968;5.918;2024-01-15T12:52:39;7.22;;;1.00;;
22768;SDS011;13001;51.968;5.918;2024-01-15T12:55:07;4.58;;;1.10;;
22768;SDS011;13001;51.968;5.918;2024-01-15T12:57:36;4.05;;;1.00;;
22768;SDS011;13001;51.968;5.918;2024-01-15T13:00:04;5.37;;;1.00;;
22768;SDS011;13001;51.968;5.918;2024-01-15T13:02:34;4.07;;;0.90;;
22768;SDS011;13001;51.968;5.918;2024-01-15T13:05:03;5.35;;;1.10;;
22768;SDS011;13001;51.968;5.918;2024-01-15T13:07:31;4.70;;;0.90;;
22768;SDS011;13001;51.968;5.918;2024-01-15T13:09:59;4.70;;;0.90;;
22768;SDS011;13001;51.968;5.918;2024-01-15T13:12:26;2.92;;;0.80;;
22768;SDS011;13001;51.968;5.918;2024-01-15T13:14:54;4.15;;;1.20;;
22768;SDS011;13001;51.968;5.918;2024-01-15T13:17:22;4.13;;;1.00;;
22768;SDS011;13001;51.968;5.918;2024-01-15T13:19:49;4.60;;;0.93;;
22768;SDS011;13001;51.968;5.918;2024-01-15T13:22:17;4.15;;;1.00;;
22768;SDS011;13001;51.968;5.918;2024-01-15T13:24:46;3.33;;;1.07;;
22768;SDS011;13001;51.968;5.918;2024-01-15T13:27:15;5.35;;;0.82;;
22768;SDS011;13001;51.968;5.918;2024-01-15T13:29:43;3.17;;;0.65;;
22768;SDS011;13001;51.968;5.918;2024-01-15T13:32:11;4.78;;;0.80;;
22768;SDS011;13001;51.968;5.918;2024-01-15T13:34:42;3.40;;;0.90;;
22768;SDS011;13001;51.968;5.918;2024-01-15T13:37:09;6.25;;;0.85;;
22768;SDS011;13001;51.968;5.918;2024-01-15T13:39:37;3.02;;;0.90;;
22768;SDS011;13001;51.968;5.918;2024-01-15T13:42:05;6.00;;;1.00;;
22768;SDS011;13001;51.968;5.918;2024-01-15T13:44:32;6.00;;;1.00;;
22768;SDS011;13001;51.968;5.918;2024-01-15T13:47:00;6.20;;;1.10;;
22768;SDS011;13001;51.968;5.918;2024-01-15T13:49:28;6.00;;;1.20;;
22768;SDS011;13001;51.968;5.918;2024-01-15T13:51:55;6.60;;;1.50;;
22768;SDS011;13001;51.968;5.918;2024-01-15T13:54:23;6.25;;;1.30;;
22768;SDS011;13001;51.968;5.918;2024-01-15T13:56:50;5.47;;;1.25;;
22768;SDS011;13001;51.968;5.918;2024-01-15T13:59:18;3.27;;;1.00;;
22768;SDS011;13001;51.968;5.918;2024-01-15T14:01:45;7.40;;;1.30;;
22768;SDS011;13001;51.968;5.918;2024-01-15T14:04:13;6.42;;;1.20;;
22768;SDS011;13001;51.968;5.918;2024-01-15T14:06:41;6.70;;;1.20;;
22768;SDS011;13001;51.968;5.918;2024-01-15T14:09:08;6.03;;;1.20;;
22768;SDS011;13001;51.968;5.918;2024-01-15T14:11:39;7.97;;;1.10;;
22768;SDS011;13001;51.968;5.918;2024-01-15T14:14:07;5.90;;;1.35;;
22768;SDS011;13001;51.968;5.918;2024-01-15T14:16:35;6.80;;;1.17;;
22768;SDS011;13001;51.968;5.918;2024-01-15T14:19:02;5.65;;;1.05;;
22768;SDS011;13001;51.968;5.918;2024-01-15T14:21:31;8.15;;;1.22;;
22768;SDS011;13001;51.968;5.918;2024-01-15T14:23:59;8.85;;;1.32;;
22768;SDS011;13001;51.968;5.918;2024-01-15T14:26:26;7.60;;;1.50;;
22768;SDS011;13001;51.968;5.918;2024-01-15T14:28:54;6.85;;;1.10;;
22768;SDS011;13001;51.968;5.918;2024-01-15T14:31:21;6.03;;;1.35;;
22768;SDS011;13001;51.968;5.918;2024-01-15T14:33:52;9.30;;;1.20;;
22768;SDS011;13001;51.968;5.918;2024-01-15T14:36:21;7.72;;;1.57;;
22768;SDS011;13001;51.968;5.918;2024-01-15T14:38:48;8.40;;;1.40;;
22768;SDS011;13001;51.968;5.918;2024-01-15T14:41:16;7.00;;;1.45;;
22768;SDS011;13001;51.968;5.918;2024-01-15T14:43:46;8.33;;;1.40;;
22768;SDS011;13001;51.968;5.918;2024-01-15T14:46:13;8.60;;;1.50;;
22768;SDS011;13001;51.968;5.918;2024-01-15T14:48:41;7.00;;;1.47;;
22768;SDS011;13001;51.968;5.918;2024-01-15T14:51:10;9.75;;;2.00;;
22768;SDS011;13001;51.968;5.918;2024-01-15T14:53:38;7.60;;;1.40;;
22768;SDS011;13001;51.968;5.918;2024-01-15T14:56:05;8.48;;;1.30;;
22768;SDS011;13001;51.968;5.918;2024-01-15T14:58:33;9.73;;;1.50;;
22768;SDS011;13001;51.968;5.918;2024-01-15T15:01:01;7.53;;;1.40;;